Flight Track Log - Related Links

Times and Time Zones

All times are in EDT time to prevent confusion due to time zone crossing. See the DAL1118 flight status page for this flight to view local times or setup timezone preferences in your user account.


Time Position Orientation Groundspeed Altitude Reporting Facility
EDT Latitude Longitude Course Direction KTS MPH feet Rate Location/Type
Wed 07:15:15 PM 33.6333 -84.4500 81° East 162 186 2,800  Level Atlanta TRACON
Wed 07:16:15 PM 33.6167 -84.5167 253° West 230 265 5,400 3,150 Climbing Atlanta TRACON
Wed 07:17:00 PM 33.6964 -83.9869 118° Southeast  Level FlightAware Approximate
Wed 07:17:15 PM 33.5667 -84.5833 228° Southwest 256 295 9,100  Level Atlanta TRACON
Wed 07:18:00 PM 33.6385 -83.8545 118° Southeast  Level FlightAware Approximate
Wed 07:18:53 PM 33.4572 -84.5567 169° South 295 339 10,000  Level Atlanta Center
Wed 07:19:00 PM 33.5785 -83.7236 121° Southeast  Level FlightAware Approximate
Wed 07:19:53 PM 33.4556 -84.4472 91° East 230 265 11,800  Level Atlanta Center
Wed 07:20:00 PM 33.5389 -83.5898 81° East  Level FlightAware Approximate
Wed 07:20:53 PM 33.4578 -84.3178 89° East 310 357 14,500  Level Atlanta Center
Wed 07:21:53 PM 33.4706 -84.1783 84° East 385 443 17,400 2,700 Climbing Atlanta Center
Wed 07:22:53 PM 33.4917 -84.0314 80° East 429 494 19,900 2,400 Climbing Atlanta Center
Wed 07:23:53 PM 33.5144 -83.8819 80° East 450 518 22,200 2,050 Climbing Atlanta Center
Wed 07:24:53 PM 33.5372 -83.7222 80° East 475 547 24,000 1,900 Climbing Atlanta Center
Wed 07:25:53 PM 33.5575 -83.5628 81° East 484 557 26,000 2,300 Climbing Atlanta Center
Wed 07:26:53 PM 33.5756 -83.4006 82° East 484 557 28,600 1,500 Climbing Atlanta Center
Wed 07:27:53 PM 33.5975 -83.2233 81° East 484 557 29,000 200 Climbing Atlanta Center
Wed 07:28:53 PM 33.6128 -83.0586 84° East 484 557 29,000  Level Atlanta Center
Wed 07:29:53 PM 33.6303 -82.8986 82° East 483 556 29,000  Level Atlanta Center
Wed 07:30:53 PM 33.6494 -82.7336 82° East 483 556 29,000  Level Atlanta Center
Wed 07:32:28 PM 33.6689 -82.4983 84° East 473 544 29,000  Level Jacksonville Center
Wed 07:33:28 PM 33.6911 -82.3108 82° East 509 586 29,000  Level Jacksonville Center
Wed 07:34:28 PM 33.7111 -82.1486 82° East 497 572 29,000  Level Jacksonville Center
Wed 07:35:28 PM 33.7433 -81.9908 76° East 492 566 29,000  Level Jacksonville Center
Wed 07:36:28 PM 33.7778 -81.8356 75° East 484 557 29,000  Level Jacksonville Center
Wed 07:37:28 PM 33.8117 -81.6778 75° East 479 551 29,000  Level Jacksonville Center
Wed 07:38:28 PM 33.8583 -81.5269 70° East 479 551 29,000  Level Jacksonville Center
Wed 07:39:28 PM 33.9214 -81.3858 62° Northeast 474 545 29,000  Level Jacksonville Center
Wed 07:40:28 PM 33.9842 -81.2472 61° Northeast 469 540 29,000  Level Jacksonville Center
Wed 07:41:28 PM 34.0428 -81.1056 63° Northeast 469 540 29,000  Level Jacksonville Center
Wed 07:42:28 PM 34.0972 -80.9817 62° Northeast 463 533 29,000  Level Jacksonville Center
Wed 07:43:28 PM 34.1597 -80.8422 62° Northeast 463 533 29,000  Level Jacksonville Center
Wed 07:44:28 PM 34.2200 -80.7028 62° Northeast 458 527 29,000 -450 Level Jacksonville Center
Wed 07:45:28 PM 34.2822 -80.5631 62° Northeast 458 527 28,100 -1,850 Descending Jacksonville Center
Wed 07:46:28 PM 34.3422 -80.4231 63° Northeast 458 527 25,300 -2,874 Descending Jacksonville Center
Wed 07:47:27 PM 34.4019 -80.2856 62° Northeast 458 527 22,400 -2,632 Descending Jacksonville Center
Wed 07:49:19 PM 34.5042 -80.0400 63° Northeast 433 498 17,800 -2,428 Descending Washington Center
Wed 07:50:20 PM 34.5639 -79.8944 63° Northeast 440 506 15,400 -1,950 Descending Washington Center
Wed 07:51:19 PM 34.6161 -79.7711 63° Northeast 419 482 13,900 -1,750 Descending Washington Center
Wed 07:52:20 PM 34.6683 -79.6550 61° Northeast 397 457 11,900 -1,700 Descending Washington Center
Wed 07:53:19 PM 34.7178 -79.5439 62° Northeast 384 442 10,500 -1,350 Descending Washington Center
Wed 07:54:20 PM 34.7586 -79.4422 64° Northeast 343 395 9,200 -1,388 Descending Washington Center
Wed 07:55:20 PM 34.7950 -79.3503 64° Northeast 329 379 7,700 -1,250 Descending Washington Center
Wed 07:56:20 PM 34.8356 -79.2561 62° Northeast 322 371 6,700 -1,150 Descending Washington Center
Wed 07:57:20 PM 34.8736 -79.1667 63° Northeast 302 348 5,400 -1,250 Descending Washington Center
Wed 07:58:20 PM 34.9200 -79.0850 55° Northeast 297 342 4,200 -1,200 Descending Washington Center
Wed 07:59:20 PM 34.9864 -79.0269 36° Northeast 285 328 3,000 -600 Descending Washington Center
Wed 08:00:20 PM 35.0483 -78.9689 37° Northeast 262 302 3,000  Level Washington Center

Login

Don't have an account? Register now (free) for customized features, flight alerts, and more!